Time;durP1;ratioP1;P1;durP2;ratioP2;P2;SDS_P1;SDS_P2;PMS_P1;PMS_P2;Temp;Humidity;BMP_temperature;BMP_pressure;BME280_temperature;BME280_humidity;BME280_pressure;Samples;Min_cycle;Max_cycle;Signal;HPM_P1;HPM_P2
2021/04/22 00:00:40;;;;;;;413.83;221.38;;;;;;;;;;4997840;28;20032;-75
2021/04/22 00:03:06;;;;;;;399.48;221.88;;;;;;;;;;5014317;28;20035;-75
2021/04/22 00:05:36;;;;;;;403.20;222.60;;;;;;;;;;4992991;28;20054;-75
2021/04/22 00:08:02;;;;;;;;;;;;;;;;;;4996457;28;20030;-75
2021/04/22 00:10:45;;;;;;;391.00;202.57;;;;;;;;;;5006479;28;19909;-75
2021/04/22 00:13:13;;;;;;;393.98;211.43;;;;;;;;;;4994416;28;20026;-76
2021/04/22 00:15:39;;;;;;;402.15;222.57;;;;;;;;;;4984594;28;20018;-75
2021/04/22 00:21:09;;;;;;;400.92;217.40;;;;;;;;;;5000821;28;20041;-75
2021/04/22 00:23:35;;;;;;;394.33;214.57;;;;;;;;;;4986978;28;20149;-76
2021/04/22 00:26:01;;;;;;;390.05;224.50;;;;;;;;;;5005766;28;20101;-76
2021/04/22 00:28:28;;;;;;;399.27;228.70;;;;;;;;;;4984720;28;20033;-76
2021/04/22 00:30:54;;;;;;;395.88;216.65;;;;;;;;;;4993448;28;20044;-75
2021/04/22 00:33:21;;;;;;;408.10;223.52;;;;;;;;;;4993236;28;20034;-76
2021/04/22 00:35:47;;;;;;;401.15;220.13;;;;;;;;;;4993866;28;20029;-76
2021/04/22 00:38:14;;;;;;;394.17;218.23;;;;;;;;;;4979349;28;20383;-76
2021/04/22 00:40:40;;;;;;;391.00;217.00;;;;;;;;;;4983884;28;20118;-77
2021/04/22 00:43:08;;;;;;;400.35;224.20;;;;;;;;;;4983394;28;20054;-76
2021/04/22 00:45:34;;;;;;;399.30;232.75;;;;;;;;;;4988664;28;20058;-76
2021/04/22 00:48:00;;;;;;;393.00;214.43;;;;;;;;;;4987706;28;20034;-76
2021/04/22 00:50:28;;;;;;;411.88;225.65;;;;;;;;;;4996069;28;20045;-76
2021/04/22 00:52:58;;;;;;;396.77;217.35;;;;;;;;;;4986953;28;20035;-76
2021/04/22 00:55:24;;;;;;;409.25;217.85;;;;;;;;;;4997872;28;20057;-76
2021/04/22 00:57:51;;;;;;;402.90;220.95;;;;;;;;;;4988964;28;20035;-76
2021/04/22 01:00:18;;;;;;;414.77;225.13;;;;;;;;;;5004862;28;20030;-76
2021/04/22 01:02:45;;;;;;;403.38;214.18;;;;;;;;;;5007547;28;20035;-75
2021/04/22 01:05:17;;;;;;;412.80;219.48;;;;;;;;;;5008105;28;20175;-75
2021/04/22 01:07:44;;;;;;;404.48;218.40;;;;;;;;;;5005700;28;20454;-76
2021/04/22 01:10:12;;;;;;;401.00;223.30;;;;;;;;;;5009353;28;20022;-77
2021/04/22 01:12:38;;;;;;;401.02;221.05;;;;;;;;;;4993228;28;20393;-76
2021/04/22 01:15:05;;;;;;;406.42;214.75;;;;;;;;;;5003112;28;20061;-76
2021/04/22 01:17:33;;;;;;;403.08;222.70;;;;;;;;;;4984199;28;20042;-76
2021/04/22 01:19:59;;;;;;;405.15;220.48;;;;;;;;;;4989882;28;20031;-75
2021/04/22 01:22:25;;;;;;;393.67;219.85;;;;;;;;;;4997824;28;20034;-77
2021/04/22 01:24:51;;;;;;;397.08;227.52;;;;;;;;;;5001147;28;20375;-77
2021/04/22 01:27:17;;;;;;;398.63;217.15;;;;;;;;;;4991567;28;20125;-76
2021/04/22 01:29:43;;;;;;;400.48;232.13;;;;;;;;;;5008425;28;20049;-77
2021/04/22 01:32:10;;;;;;;404.70;226.80;;;;;;;;;;5015007;28;20018;-76
2021/04/22 01:34:36;;;;;;;400.13;220.55;;;;;;;;;;5010863;28;20030;-77
2021/04/22 01:37:02;;;;;;;390.10;223.40;;;;;;;;;;4992815;28;20025;-76
2021/04/22 01:39:28;;;;;;;396.08;220.25;;;;;;;;;;5000208;28;20038;-76
2021/04/22 01:41:54;;;;;;;397.80;225.75;;;;;;;;;;4985755;28;20041;-77
2021/04/22 01:44:20;;;;;;;402.00;233.00;;;;;;;;;;4996987;28;20037;-77
2021/04/22 01:46:46;;;;;;;397.65;221.05;;;;;;;;;;4996069;28;20038;-76
2021/04/22 01:49:12;;;;;;;397.38;222.93;;;;;;;;;;4995663;28;20038;-76
2021/04/22 01:51:38;;;;;;;401.77;217.48;;;;;;;;;;4984251;28;20578;-76
2021/04/22 01:54:04;;;;;;;396.17;225.63;;;;;;;;;;4995189;28;20030;-76
2021/04/22 01:56:30;;;;;;;398.67;224.00;;;;;;;;;;4975973;28;20422;-76
2021/04/22 01:58:56;;;;;;;397.25;226.32;;;;;;;;;;4987387;28;20038;-76
2021/04/22 02:01:22;;;;;;;400.08;220.48;;;;;;;;;;4982640;28;20733;-76
2021/04/22 02:03:48;;;;;;;397.27;222.57;;;;;;;;;;4986338;28;20030;-77
2021/04/22 02:06:14;;;;;;;397.73;222.52;;;;;;;;;;4992336;28;20026;-75
2021/04/22 02:08:40;;;;;;;399.10;223.68;;;;;;;;;;4989571;28;20030;-76
2021/04/22 02:11:06;;;;;;;393.85;217.05;;;;;;;;;;4982488;28;20042;-76
2021/04/22 02:13:33;;;;;;;392.65;222.82;;;;;;;;;;5005111;28;20425;-76
2021/04/22 02:15:59;;;;;;;394.27;224.30;;;;;;;;;;4999327;28;20026;-76
2021/04/22 02:18:25;;;;;;;397.02;226.98;;;;;;;;;;5002715;28;20030;-76
2021/04/22 02:20:51;;;;;;;392.92;217.25;;;;;;;;;;4993472;28;20034;-77
2021/04/22 02:23:17;;;;;;;397.98;217.38;;;;;;;;;;4991046;28;20486;-76
2021/04/22 02:25:44;;;;;;;390.13;220.57;;;;;;;;;;5009915;28;20032;-76
2021/04/22 02:28:10;;;;;;;396.48;224.70;;;;;;;;;;4983688;28;20035;-76
2021/04/22 02:30:38;;;;;;;395.95;223.82;;;;;;;;;;5002464;28;20041;-76
2021/04/22 02:33:05;;;;;;;397.23;230.93;;;;;;;;;;4979959;28;20055;-76
2021/04/22 02:35:32;;;;;;;398.20;220.70;;;;;;;;;;4993217;28;20982;-76
2021/04/22 02:37:59;;;;;;;403.75;221.05;;;;;;;;;;5005222;28;20022;-76
2021/04/22 02:40:27;;;;;;;406.33;223.45;;;;;;;;;;4994353;28;20030;-75
2021/04/22 02:42:53;;;;;;;404.10;220.07;;;;;;;;;;4994103;28;20179;-76
2021/04/22 02:45:21;;;;;;;394.23;207.40;;;;;;;;;;5000372;28;20062;-76
2021/04/22 02:47:47;;;;;;;397.63;229.98;;;;;;;;;;4984808;28;20030;-76
2021/04/22 02:50:18;;;;;;;386.65;225.80;;;;;;;;;;4991824;28;20038;-75
2021/04/22 02:52:45;;;;;;;392.27;213.48;;;;;;;;;;4982953;28;20030;-76
2021/04/22 02:55:11;;;;;;;383.65;215.32;;;;;;;;;;4982554;28;20030;-76
2021/04/22 02:57:37;;;;;;;390.50;224.32;;;;;;;;;;5002766;28;20026;-75
2021/04/22 03:00:07;;;;;;;391.13;227.18;;;;;;;;;;5001408;28;20042;-76
2021/04/22 03:02:33;;;;;;;381.00;214.00;;;;;;;;;;4977374;28;20037;-75
2021/04/22 03:05:00;;;;;;;378.88;214.10;;;;;;;;;;4984346;28;20525;-75
2021/04/22 03:07:26;;;;;;;379.88;215.77;;;;;;;;;;4990852;28;20951;-76
2021/04/22 03:09:52;;;;;;;388.85;216.68;;;;;;;;;;5003976;28;20132;-75
2021/04/22 03:12:18;;;;;;;391.00;225.25;;;;;;;;;;4998741;28;20050;-75
2021/04/22 03:14:44;;;;;;;374.17;217.82;;;;;;;;;;4994859;28;20512;-75
2021/04/22 03:17:10;;;;;;;392.05;226.00;;;;;;;;;;4987879;28;20061;-76
2021/04/22 03:19:36;;;;;;;380.55;215.45;;;;;;;;;;4991698;28;20054;-76
2021/04/22 03:22:02;;;;;;;388.58;214.32;;;;;;;;;;4989602;28;20038;-76
2021/04/22 03:24:28;;;;;;;384.40;220.23;;;;;;;;;;4985165;28;20493;-76
2021/04/22 03:26:55;;;;;;;397.42;224.80;;;;;;;;;;4991308;28;20113;-76
2021/04/22 03:29:25;;;;;;;394.75;225.65;;;;;;;;;;4978635;28;20120;-76
2021/04/22 03:31:52;;;;;;;385.75;220.68;;;;;;;;;;4994434;28;20025;-76
2021/04/22 03:34:19;;;;;;;390.25;214.48;;;;;;;;;;4990808;28;20330;-75
2021/04/22 03:36:45;;;;;;;398.15;228.98;;;;;;;;;;4994823;28;20027;-76
2021/04/22 03:39:11;;;;;;;395.17;222.52;;;;;;;;;;4996608;28;20524;-76
2021/04/22 03:41:37;;;;;;;390.85;220.13;;;;;;;;;;4989204;28;20631;-76
2021/04/22 03:44:04;;;;;;;386.15;222.77;;;;;;;;;;4983005;28;20030;-76
2021/04/22 03:49:33;;;;;;;385.42;218.40;;;;;;;;;;5014823;28;20037;-77
2021/04/22 03:51:59;;;;;;;388.33;221.40;;;;;;;;;;5015567;28;20026;-77
2021/04/22 03:54:25;;;;;;;381.05;216.93;;;;;;;;;;4990146;28;20030;-75
2021/04/22 03:56:51;;;;;;;385.73;218.07;;;;;;;;;;5011614;28;20463;-76
2021/04/22 03:59:17;;;;;;;399.20;228.68;;;;;;;;;;5003861;28;20034;-76
2021/04/22 04:01:43;;;;;;;390.75;225.13;;;;;;;;;;5011203;28;20085;-75
2021/04/22 04:04:09;;;;;;;393.27;227.05;;;;;;;;;;4983164;28;20650;-76
2021/04/22 04:06:35;;;;;;;393.77;224.80;;;;;;;;;;4983336;28;20040;-76
2021/04/22 04:09:01;;;;;;;385.83;227.55;;;;;;;;;;4989546;28;20029;-77
2021/04/22 04:11:27;;;;;;;381.88;223.75;;;;;;;;;;5005881;28;20105;-76
2021/04/22 04:13:53;;;;;;;391.08;227.07;;;;;;;;;;4995257;28;20054;-76
2021/04/22 04:16:19;;;;;;;394.67;227.30;;;;;;;;;;4987639;28;20034;-76
2021/04/22 04:18:45;;;;;;;388.50;218.73;;;;;;;;;;4990651;28;20632;-76
2021/04/22 04:21:11;;;;;;;399.10;233.88;;;;;;;;;;4980680;28;20513;-76
2021/04/22 04:23:37;;;;;;;395.58;224.75;;;;;;;;;;4997452;28;20033;-76
2021/04/22 04:26:03;;;;;;;395.40;228.13;;;;;;;;;;4990296;28;20050;-76
2021/04/22 04:28:29;;;;;;;399.60;232.73;;;;;;;;;;4987220;28;20076;-76
2021/04/22 04:30:55;;;;;;;398.05;227.55;;;;;;;;;;4996743;28;20601;-76
2021/04/22 04:33:21;;;;;;;392.80;232.55;;;;;;;;;;5006569;28;20050;-76
2021/04/22 04:35:47;;;;;;;390.52;234.60;;;;;;;;;;4985330;28;20111;-76
2021/04/22 04:38:13;;;;;;;404.05;233.27;;;;;;;;;;4997352;28;20117;-76
2021/04/22 04:40:39;;;;;;;404.40;228.63;;;;;;;;;;4989663;28;20121;-76
2021/04/22 04:43:05;;;;;;;396.90;235.93;;;;;;;;;;4992154;28;20112;-75
2021/04/22 04:45:30;;;;;;;390.55;224.80;;;;;;;;;;4996061;28;20038;-75
2021/04/22 04:47:56;;;;;;;398.48;233.35;;;;;;;;;;4983412;28;20723;-77
2021/04/22 04:50:22;;;;;;;400.65;228.15;;;;;;;;;;4992532;28;20074;-77
2021/04/22 04:52:48;;;;;;;408.92;247.73;;;;;;;;;;4984587;28;20026;-76
2021/04/22 04:55:15;;;;;;;403.27;231.88;;;;;;;;;;4998092;28;20061;-77
2021/04/22 04:57:41;;;;;;;400.42;232.38;;;;;;;;;;4989399;28;20018;-75
2021/04/22 05:00:08;;;;;;;396.30;229.95;;;;;;;;;;4989851;28;20034;-75
2021/04/22 05:02:34;;;;;;;396.67;229.63;;;;;;;;;;5004466;28;20034;-78
2021/04/22 05:05:01;;;;;;;403.48;236.05;;;;;;;;;;4996821;28;20030;-77
2021/04/22 05:07:27;;;;;;;403.10;234.05;;;;;;;;;;5004786;28;20022;-77
2021/04/22 05:09:53;;;;;;;415.40;250.40;;;;;;;;;;5006128;28;20035;-77
2021/04/22 05:12:19;;;;;;;413.25;241.52;;;;;;;;;;4996794;28;20105;-77
2021/04/22 05:14:45;;;;;;;408.50;234.90;;;;;;;;;;4982660;28;20630;-76
2021/04/22 05:17:11;;;;;;;404.77;242.38;;;;;;;;;;5000970;28;21549;-77
2021/04/22 05:19:37;;;;;;;400.25;231.63;;;;;;;;;;5010692;28;20026;-76
2021/04/22 05:22:03;;;;;;;402.13;228.88;;;;;;;;;;5003297;28;20053;-77
2021/04/22 05:24:29;;;;;;;407.08;233.10;;;;;;;;;;4991918;28;20062;-76
2021/04/22 05:26:55;;;;;;;408.65;236.98;;;;;;;;;;4991505;28;20102;-77
2021/04/22 05:29:21;;;;;;;407.73;245.07;;;;;;;;;;5002254;28;20034;-76
2021/04/22 05:31:47;;;;;;;404.25;232.85;;;;;;;;;;4987968;28;20033;-76
2021/04/22 05:34:13;;;;;;;399.10;236.13;;;;;;;;;;4998126;28;20036;-78
2021/04/22 05:36:39;;;;;;;410.40;233.88;;;;;;;;;;5000537;28;20382;-77
2021/04/22 05:39:06;;;;;;;401.95;235.50;;;;;;;;;;4994274;28;20053;-78
2021/04/22 05:41:33;;;;;;;401.17;240.05;;;;;;;;;;4986955;28;20599;-78
2021/04/22 05:43:59;;;;;;;406.17;247.57;;;;;;;;;;5015530;28;20018;-78
2021/04/22 05:46:25;;;;;;;424.88;246.18;;;;;;;;;;4994757;28;20046;-77
2021/04/22 05:48:51;;;;;;;408.83;250.82;;;;;;;;;;4996088;28;20304;-77
2021/04/22 05:51:17;;;;;;;409.65;246.60;;;;;;;;;;5000106;28;20045;-77
2021/04/22 05:53:43;;;;;;;410.95;244.70;;;;;;;;;;4997851;28;20024;-77
2021/04/22 05:56:10;;;;;;;420.63;248.05;;;;;;;;;;4997619;28;20030;-76
2021/04/22 05:58:36;;;;;;;411.77;251.38;;;;;;;;;;4978787;28;20109;-77
2021/04/22 06:01:02;;;;;;;419.77;255.55;;;;;;;;;;4986943;28;20065;-78
2021/04/22 06:03:28;;;;;;;411.48;247.02;;;;;;;;;;4992819;28;20042;-77
2021/04/22 06:05:54;;;;;;;417.77;252.48;;;;;;;;;;4991569;28;20402;-76
2021/04/22 06:08:19;;;;;;;413.48;252.23;;;;;;;;;;4987085;28;20035;-77
2021/04/22 06:10:45;;;;;;;411.77;255.88;;;;;;;;;;4999868;28;20033;-77
2021/04/22 06:13:13;;;;;;;414.73;252.93;;;;;;;;;;5011628;28;20029;-77
2021/04/22 06:15:39;;;;;;;421.80;250.32;;;;;;;;;;4994428;28;20018;-77
2021/04/22 06:18:06;;;;;;;414.67;250.60;;;;;;;;;;4988314;28;20029;-78
2021/04/22 06:20:32;;;;;;;413.27;251.20;;;;;;;;;;4986885;28;20053;-79
2021/04/22 06:22:58;;;;;;;414.70;260.67;;;;;;;;;;4994237;28;20394;-78
2021/04/22 06:25:24;;;;;;;417.90;258.52;;;;;;;;;;4998402;28;20478;-78
2021/04/22 06:27:51;;;;;;;411.40;258.58;;;;;;;;;;4986768;28;20876;-78
2021/04/22 06:30:17;;;;;;;406.48;253.43;;;;;;;;;;4994234;28;20033;-78
2021/04/22 06:32:43;;;;;;;409.63;261.67;;;;;;;;;;4991437;28;20037;-78
2021/04/22 06:35:10;;;;;;;413.70;261.67;;;;;;;;;;4994976;28;20378;-78
2021/04/22 06:37:36;;;;;;;412.77;267.40;;;;;;;;;;4996714;28;20472;-76
2021/04/22 06:40:04;;;;;;;412.90;264.48;;;;;;;;;;4993987;28;20425;-77
2021/04/22 06:42:30;;;;;;;416.33;271.88;;;;;;;;;;4995958;28;20041;-78
2021/04/22 06:44:56;;;;;;;420.38;269.50;;;;;;;;;;4978120;28;20454;-78
2021/04/22 06:47:44;;;;;;;420.35;267.08;;;;;;;;;;4998400;28;20122;-79
2021/04/22 06:50:11;;;;;;;422.20;268.48;;;;;;;;;;4984813;28;20050;-77
2021/04/22 06:52:38;;;;;;;413.95;266.58;;;;;;;;;;4981291;28;20034;-78
2021/04/22 06:55:05;;;;;;;424.10;270.45;;;;;;;;;;5011651;28;20021;-77
2021/04/22 06:57:31;;;;;;;412.38;268.83;;;;;;;;;;4994520;28;20018;-77
2021/04/22 06:59:57;;;;;;;417.80;268.27;;;;;;;;;;5011116;28;20026;-76
2021/04/22 07:02:23;;;;;;;409.30;269.33;;;;;;;;;;4985469;28;20449;-79
2021/04/22 07:04:49;;;;;;;413.65;270.60;;;;;;;;;;4996012;28;20025;-78
2021/04/22 07:07:15;;;;;;;418.63;275.90;;;;;;;;;;5007316;28;20026;-78
2021/04/22 07:09:41;;;;;;;415.88;272.60;;;;;;;;;;5013087;28;20029;-76
2021/04/22 07:12:07;;;;;;;414.65;270.38;;;;;;;;;;4992489;28;20479;-82
2021/04/22 07:14:33;;;;;;;415.98;271.10;;;;;;;;;;4991854;28;20022;-78
2021/04/22 07:17:00;;;;;;;416.85;270.52;;;;;;;;;;5006358;28;20885;-77
2021/04/22 07:19:27;;;;;;;416.02;267.77;;;;;;;;;;4995917;28;20026;-75
2021/04/22 07:21:53;;;;;;;415.77;272.83;;;;;;;;;;4988066;28;20054;-76
2021/04/22 07:24:19;;;;;;;416.05;269.85;;;;;;;;;;4983257;28;20037;-76
2021/04/22 07:26:45;;;;;;;416.15;262.88;;;;;;;;;;4990290;28;20032;-81
2021/04/22 07:29:11;;;;;;;417.80;273.58;;;;;;;;;;4999470;28;20460;-78
2021/04/22 07:31:37;;;;;;;416.75;275.25;;;;;;;;;;4999136;28;20021;-79
2021/04/22 07:34:04;;;;;;;415.98;272.13;;;;;;;;;;5017703;28;20473;-79
2021/04/22 07:36:30;;;;;;;413.77;269.83;;;;;;;;;;5015394;28;20537;-79
2021/04/22 07:38:55;;;;;;;420.70;270.02;;;;;;;;;;5007302;28;20049;-79
2021/04/22 07:41:22;;;;;;;425.55;277.23;;;;;;;;;;5000946;28;20473;-79
2021/04/22 07:43:48;;;;;;;423.08;280.77;;;;;;;;;;5000279;28;20022;-77
2021/04/22 07:46:14;;;;;;;425.58;276.98;;;;;;;;;;5008907;28;20050;-79
2021/04/22 07:48:40;;;;;;;426.15;279.23;;;;;;;;;;4999173;28;20041;-77
2021/04/22 07:51:06;;;;;;;428.75;287.63;;;;;;;;;;4998940;28;20559;-76
2021/04/22 07:53:33;;;;;;;425.92;280.23;;;;;;;;;;4999125;28;20426;-78
2021/04/22 07:56:01;;;;;;;421.05;279.88;;;;;;;;;;4998737;28;20072;-80
2021/04/22 07:58:27;;;;;;;426.95;280.63;;;;;;;;;;4998821;28;20022;-80
2021/04/22 08:00:53;;;;;;;428.90;290.83;;;;;;;;;;5016135;28;20053;-79
2021/04/22 08:03:19;;;;;;;417.65;279.95;;;;;;;;;;4999162;28;20389;-78
2021/04/22 08:05:47;;;;;;;422.73;287.58;;;;;;;;;;5015486;28;20748;-80
2021/04/22 08:08:13;;;;;;;429.35;285.98;;;;;;;;;;5016295;28;20116;-79
2021/04/22 08:14:11;;;;;;;424.50;283.75;;;;;;;;;;5016238;28;20029;-79
2021/04/22 08:16:37;;;;;;;415.73;277.35;;;;;;;;;;4996271;28;20057;-78
2021/04/22 08:19:04;;;;;;;429.02;288.80;;;;;;;;;;4988752;28;20049;-79
2021/04/22 08:21:30;;;;;;;428.48;289.95;;;;;;;;;;4998182;28;20036;-79
2021/04/22 08:23:57;;;;;;;425.17;288.58;;;;;;;;;;5015559;28;20049;-79
2021/04/22 08:26:23;;;;;;;430.23;293.45;;;;;;;;;;4997938;28;20030;-77
2021/04/22 08:28:49;;;;;;;425.60;302.30;;;;;;;;;;4998103;28;20121;-78
2021/04/22 08:31:24;;;;;;;429.70;306.33;;;;;;;;;;4997101;28;20122;-77
2021/04/22 08:33:54;;;;;;;432.23;297.98;;;;;;;;;;5034671;28;20511;-75
2021/04/22 08:36:20;;;;;;;;;;;;;;;;;;5008214;28;20027;-78
2021/04/22 08:38:46;;;;;;;422.02;278.63;;;;;;;;;;4992439;28;19914;-75
2021/04/22 08:41:13;;;;;;;429.33;282.20;;;;;;;;;;4998677;28;20041;-77
2021/04/22 08:43:39;;;;;;;436.60;291.20;;;;;;;;;;4998285;28;20076;-76
2021/04/22 08:46:06;;;;;;;432.65;298.23;;;;;;;;;;4988856;28;20042;-78
2021/04/22 08:48:32;;;;;;;424.98;295.70;;;;;;;;;;4980970;28;20173;-77
2021/04/22 08:50:58;;;;;;;422.30;295.85;;;;;;;;;;4978575;28;20109;-78
2021/04/22 08:53:25;;;;;;;425.67;300.70;;;;;;;;;;4978710;28;20046;-78
2021/04/22 08:55:52;;;;;;;426.17;303.65;;;;;;;;;;4977905;28;20703;-78
2021/04/22 08:58:18;;;;;;;426.25;303.50;;;;;;;;;;5005294;28;20370;-78
2021/04/22 09:00:44;;;;;;;427.95;314.08;;;;;;;;;;4998510;28;20145;-79
2021/04/22 09:03:11;;;;;;;435.98;329.13;;;;;;;;;;4998165;28;20093;-72
2021/04/22 09:05:37;;;;;;;434.88;342.00;;;;;;;;;;5011913;28;20068;-79
2021/04/22 09:08:03;;;;;;;440.20;360.85;;;;;;;;;;4983215;28;20029;-79
2021/04/22 09:10:29;;;;;;;441.00;372.77;;;;;;;;;;5013827;28;20057;-81
2021/04/22 09:13:12;;;;;;;441.60;382.52;;;;;;;;;;4996992;28;20029;-79
2021/04/22 09:15:40;;;;;;;439.77;382.05;;;;;;;;;;4987655;28;20026;-77
2021/04/22 09:18:09;;;;;;;444.40;385.58;;;;;;;;;;4997058;28;20022;-79
2021/04/22 09:20:36;;;;;;;447.35;394.95;;;;;;;;;;5016022;28;20051;-78
2021/04/22 09:23:13;;;;;;;459.90;409.65;;;;;;;;;;5015156;28;20050;-81
2021/04/22 09:25:39;;;;;;;454.77;404.88;;;;;;;;;;5014910;28;20025;-78
2021/04/22 09:28:05;;;;;;;456.13;404.67;;;;;;;;;;4978070;28;20037;-77
2021/04/22 09:30:33;;;;;;;454.95;404.92;;;;;;;;;;4995063;28;20696;-79
2021/04/22 09:33:00;;;;;;;462.48;411.90;;;;;;;;;;4996370;28;20054;-79
2021/04/22 09:35:26;;;;;;;469.50;418.63;;;;;;;;;;5012286;28;20401;-79
2021/04/22 09:37:53;;;;;;;480.08;428.50;;;;;;;;;;4996643;28;20060;-79
2021/04/22 09:40:19;;;;;;;489.33;437.77;;;;;;;;;;5014229;28;20108;-79
2021/04/22 09:42:46;;;;;;;486.83;436.65;;;;;;;;;;4996471;28;20112;-80
2021/04/22 09:45:13;;;;;;;483.15;431.98;;;;;;;;;;4997556;28;20184;-79
2021/04/22 09:47:40;;;;;;;487.05;435.83;;;;;;;;;;4996929;28;20398;-79
2021/04/22 09:50:10;;;;;;;491.42;440.70;;;;;;;;;;5013989;28;20032;-81
2021/04/22 09:52:39;;;;;;;490.38;439.42;;;;;;;;;;5014706;28;20018;-79
2021/04/22 09:55:07;;;;;;;482.98;432.08;;;;;;;;;;5014948;28;20035;-79
2021/04/22 09:57:35;;;;;;;477.67;426.92;;;;;;;;;;4997135;28;20049;-80
2021/04/22 10:00:02;;;;;;;482.05;430.38;;;;;;;;;;5014465;28;20378;-77
2021/04/22 10:02:28;;;;;;;473.08;421.83;;;;;;;;;;4987267;28;20064;-81
2021/04/22 10:05:04;;;;;;;473.65;422.67;;;;;;;;;;5046222;27;1460760;-76
2021/04/22 10:07:33;;;;;;;457.30;406.58;;;;;;;;;;5060757;28;20075;-81
2021/04/22 10:10:12;;;;;;;468.20;416.88;;;;;;;;;;5057542;28;20056;-80
2021/04/22 10:12:38;;;;;;;480.75;429.65;;;;;;;;;;5067645;28;20039;-75
2021/04/22 10:15:12;;;;;;;494.63;443.23;;;;;;;;;;5088157;28;20028;-77
2021/04/22 10:17:38;;;;;;;495.67;444.42;;;;;;;;;;5086432;28;20033;-77
2021/04/22 10:20:12;;;;;;;486.05;435.38;;;;;;;;;;5075675;28;20353;-77
2021/04/22 10:22:39;;;;;;;465.85;415.92;;;;;;;;;;5049901;28;20066;-80
2021/04/22 10:25:07;;;;;;;456.50;405.17;;;;;;;;;;5054618;28;20025;-79
2021/04/22 10:27:33;;;;;;;458.73;408.15;;;;;;;;;;5032343;28;20104;-77
2021/04/22 10:29:59;;;;;;;461.33;410.92;;;;;;;;;;5042677;28;20030;-79
2021/04/22 10:32:26;;;;;;;454.83;404.73;;;;;;;;;;5047508;28;20021;-78
2021/04/22 10:34:53;;;;;;;453.83;403.38;;;;;;;;;;5067292;28;20495;-77
2021/04/22 10:37:21;;;;;;;460.60;410.35;;;;;;;;;;5050789;28;20472;-79
2021/04/22 10:39:47;;;;;;;465.98;415.60;;;;;;;;;;5051974;28;20524;-80
2021/04/22 10:42:13;;;;;;;455.70;406.02;;;;;;;;;;5031736;28;20393;-78
2021/04/22 10:44:39;;;;;;;466.20;415.95;;;;;;;;;;5049925;28;20052;-79
2021/04/22 10:47:05;;;;;;;483.65;432.45;;;;;;;;;;5045912;28;20029;-79
2021/04/22 10:49:32;;;;;;;482.50;432.13;;;;;;;;;;5043307;28;20029;-76
2021/04/22 10:52:00;;;;;;;475.60;425.25;;;;;;;;;;5064452;28;20104;-79
2021/04/22 10:54:26;;;;;;;459.77;409.92;;;;;;;;;;5031653;28;20037;-78
2021/04/22 10:57:06;;;;;;;456.02;405.98;;;;;;;;;;5031422;28;20021;-78
2021/04/22 10:59:35;;;;;;;455.08;405.10;;;;;;;;;;5035520;28;20029;-79
2021/04/22 11:02:31;;;;;;;453.38;403.60;;;;;;;;;;5040430;28;20036;-79
2021/04/22 11:04:57;;;;;;;445.95;394.95;;;;;;;;;;5031092;28;20067;-77
2021/04/22 11:07:24;;;;;;;441.75;384.13;;;;;;;;;;5063738;28;20037;-76
2021/04/22 11:09:57;;;;;;;443.50;379.15;;;;;;;;;;5060585;28;20029;-78
2021/04/22 11:12:27;;;;;;;455.17;393.60;;;;;;;;;;5067503;28;20111;-76
2021/04/22 11:14:55;;;;;;;449.13;399.10;;;;;;;;;;5039810;28;20039;-79
2021/04/22 11:17:22;;;;;;;467.30;416.88;;;;;;;;;;5033488;28;20124;-79
2021/04/22 11:19:50;;;;;;;478.95;427.98;;;;;;;;;;5029278;28;20707;-79
2021/04/22 11:22:16;;;;;;;488.55;437.75;;;;;;;;;;5031903;28;20052;-81
2021/04/22 11:24:45;;;;;;;484.42;434.00;;;;;;;;;;5035283;28;20026;-78
2021/04/22 11:27:12;;;;;;;477.33;426.65;;;;;;;;;;5030056;28;20029;-78
2021/04/22 11:29:40;;;;;;;464.30;413.52;;;;;;;;;;5029148;28;20499;-77
2021/04/22 11:32:15;;;;;;;449.88;397.92;;;;;;;;;;5030720;28;20040;-77
2021/04/22 11:34:41;;;;;;;446.80;380.63;;;;;;;;;;5024934;28;20060;-78
2021/04/22 11:37:21;;;;;;;448.88;376.83;;;;;;;;;;5030660;28;20597;-80
2021/04/22 11:39:48;;;;;;;457.10;383.45;;;;;;;;;;5039426;28;20033;-79
2021/04/22 11:42:14;;;;;;;454.63;402.25;;;;;;;;;;5017081;28;20044;-86
2021/04/22 11:44:42;;;;;;;472.70;421.88;;;;;;;;;;5020864;28;20021;-78
2021/04/22 11:47:15;;;;;;;474.92;424.42;;;;;;;;;;5017360;28;20052;-81
2021/04/22 11:49:41;;;;;;;481.98;430.65;;;;;;;;;;5020995;28;20104;-78
2021/04/22 11:52:19;;;;;;;489.15;438.17;;;;;;;;;;5037118;28;20088;-78
2021/04/22 11:54:46;;;;;;;502.10;450.75;;;;;;;;;;5036698;28;20021;-76
2021/04/22 11:57:12;;;;;;;494.63;444.15;;;;;;;;;;5029660;28;20028;-81
2021/04/22 11:59:38;;;;;;;489.08;437.63;;;;;;;;;;5033576;28;20028;-80
2021/04/22 12:02:24;;;;;;;473.15;422.33;;;;;;;;;;5029072;28;20033;-79
2021/04/22 12:04:51;;;;;;;475.25;424.17;;;;;;;;;;5032697;28;20505;-79
2021/04/22 12:07:18;;;;;;;463.25;413.50;;;;;;;;;;5027731;28;20120;-80
2021/04/22 12:09:47;;;;;;;447.33;398.52;;;;;;;;;;5017066;28;20037;-83
2021/04/22 12:12:15;;;;;;;443.23;388.20;;;;;;;;;;5030301;28;20687;-79
2021/04/22 12:14:41;;;;;;;449.83;394.13;;;;;;;;;;5020794;28;20092;-78
2021/04/22 12:17:18;;;;;;;447.95;392.25;;;;;;;;;;5035711;28;20539;-81
2021/04/22 12:19:44;;;;;;;452.25;401.58;;;;;;;;;;5034704;28;20104;-77
2021/04/22 12:22:10;;;;;;;458.85;408.50;;;;;;;;;;5043836;28;20029;-80
2021/04/22 12:24:36;;;;;;;461.05;410.33;;;;;;;;;;5026588;28;20021;-79
2021/04/22 12:27:04;;;;;;;472.13;421.52;;;;;;;;;;5027258;28;20021;-83
2021/04/22 12:29:32;;;;;;;483.70;433.42;;;;;;;;;;5026089;28;20021;-81
2021/04/22 12:31:59;;;;;;;481.52;431.20;;;;;;;;;;5028659;28;20107;-78
2021/04/22 12:34:26;;;;;;;480.90;430.92;;;;;;;;;;5035137;28;20099;-83
2021/04/22 12:36:56;;;;;;;482.85;432.80;;;;;;;;;;5022624;28;20124;-80
2021/04/22 12:39:28;;;;;;;481.45;431.77;;;;;;;;;;5035286;28;20029;-85
2021/04/22 12:42:13;;;;;;;475.95;425.77;;;;;;;;;;5028747;28;20083;-76
2021/04/22 12:44:59;;;;;;;460.52;410.40;;;;;;;;;;5041458;28;20021;-76
2021/04/22 12:47:37;;;;;;;446.35;393.27;;;;;;;;;;5038131;28;20115;-81
2021/04/22 12:50:05;;;;;;;436.92;378.40;;;;;;;;;;5022229;28;20036;-83
2021/04/22 12:52:31;;;;;;;441.02;372.85;;;;;;;;;;5022888;28;20030;-82
2021/04/22 12:55:02;;;;;;;440.30;364.50;;;;;;;;;;5041017;28;20477;-76
2021/04/22 12:57:28;;;;;;;438.42;357.08;;;;;;;;;;5038993;28;20025;-80
2021/04/22 12:59:54;;;;;;;438.90;362.45;;;;;;;;;;5015971;28;20033;-79
2021/04/22 13:02:21;;;;;;;439.10;357.92;;;;;;;;;;5027187;28;20028;-79
2021/04/22 13:05:01;;;;;;;438.90;353.30;;;;;;;;;;5023284;28;20087;-88
2021/04/22 13:07:33;;;;;;;435.48;347.48;;;;;;;;;;5029719;28;20024;-80
2021/04/22 13:10:31;;;;;;;437.85;345.80;;;;;;;;;;5033439;28;20022;-79
2021/04/22 13:12:57;;;;;;;435.17;336.10;;;;;;;;;;5039818;28;20550;-82
2021/04/22 13:15:23;;;;;;;442.25;347.38;;;;;;;;;;5050787;28;20017;-82
2021/04/22 13:17:49;;;;;;;440.45;356.27;;;;;;;;;;5038773;28;20504;-85
2021/04/22 13:20:16;;;;;;;439.38;370.42;;;;;;;;;;5029523;28;20025;-82
2021/04/22 13:22:49;;;;;;;442.42;385.77;;;;;;;;;;5038794;28;20025;-85
2021/04/22 13:25:15;;;;;;;452.35;396.02;;;;;;;;;;5032983;28;20476;-84
2021/04/22 13:27:41;;;;;;;458.92;401.48;;;;;;;;;;5024322;28;20013;-82
2021/04/22 13:30:08;;;;;;;459.70;409.38;;;;;;;;;;5019640;28;20071;-79
2021/04/22 13:32:35;;;;;;;472.75;422.20;;;;;;;;;;5033171;28;20037;-80
2021/04/22 13:35:01;;;;;;;470.20;420.10;;;;;;;;;;5024460;28;20116;-78
2021/04/22 13:37:28;;;;;;;479.85;428.83;;;;;;;;;;5037162;28;20064;-83
2021/04/22 13:40:21;;;;;;;484.30;433.95;;;;;;;;;;5027947;28;20033;-82
2021/04/22 13:42:48;;;;;;;483.95;433.63;;;;;;;;;;5034116;28;20025;-80
2021/04/22 13:45:16;;;;;;;501.35;450.33;;;;;;;;;;5017494;28;20108;-84
2021/04/22 13:47:42;;;;;;;508.63;457.52;;;;;;;;;;5027642;28;20477;-82
2021/04/22 13:50:08;;;;;;;497.85;447.55;;;;;;;;;;5029503;28;20508;-80
2021/04/22 13:52:36;;;;;;;498.10;447.33;;;;;;;;;;5028126;28;20029;-76
2021/04/22 13:55:05;;;;;;;495.20;444.15;;;;;;;;;;5040563;28;20790;-83
2021/04/22 13:57:32;;;;;;;483.00;432.05;;;;;;;;;;5042281;28;20088;-81
2021/04/22 14:00:02;;;;;;;483.42;432.77;;;;;;;;;;5015969;28;20625;-78
2021/04/22 14:02:34;;;;;;;482.42;431.13;;;;;;;;;;5023960;28;20033;-83
2021/04/22 14:05:02;;;;;;;496.17;444.92;;;;;;;;;;5031845;28;20048;-85